Windsor, Missouri
Current Conditions -  °F | °C
As of 5:58 PM on Saturday 25 Oct 2014 (Local Time) from KSZL Reporting Station
Haze Haze  
Wind Chill: 73°   Ceiling: Unl
Heat Index: 73°   Visibility: 6mi
Dew Point: 62°   Wind: 2mph
Humidity: 67%   Direction: 40°NE
Pressure: 30.01"   Gusts: NA
Location:  38.53°N, 93.52°W
Report Text: KSZL 252258Z AUTO 04002KT 6SM HZ CLR 23/17 A3001 RMK AO2 SLP161 T02300166 $
Loading
Personal Weather Stations






























Interactive Weather Map
Tropical Storm Tracking
New forecast layout! Learn more

10-Day Weather Forecast

Advertisements
Track Severe Weather on mobile